createdAt,value
2022-09-03T00:01:16.588Z,50.20
2022-09-03T00:03:52.479Z,50.50
2022-09-03T00:06:30.439Z,50.30
2022-09-03T00:09:12.712Z,50.40
2022-09-03T00:11:53.806Z,50.60
2022-09-03T00:14:28.388Z,50.50
2022-09-03T00:17:00.903Z,50.70
2022-09-03T00:19:33.661Z,50.60
2022-09-03T00:22:11.190Z,50.60
2022-09-03T00:24:42.340Z,50.60
2022-09-03T00:27:16.115Z,50.60
2022-09-03T00:30:09.483Z,50.70
2022-09-03T00:32:42.331Z,50.70
2022-09-03T00:35:18.007Z,50.90
2022-09-03T00:37:44.722Z,51.20
2022-09-03T00:40:32.759Z,51.20
2022-09-03T00:43:25.937Z,51.30
2022-09-03T00:46:18.545Z,51.20
2022-09-03T00:49:29.806Z,51.30
2022-09-03T00:52:02.954Z,51.20
2022-09-03T00:55:01.095Z,51.20
2022-09-03T00:57:47.648Z,51.30
2022-09-03T01:00:19.819Z,51.20
2022-09-03T01:03:07.896Z,51.30
2022-09-03T01:05:34.539Z,51.40
2022-09-03T01:08:44.489Z,51.40
2022-09-03T01:11:23.090Z,51.50
2022-09-03T01:14:09.911Z,51.40
2022-09-03T01:16:51.613Z,51.40
2022-09-03T01:19:45.091Z,51.50
2022-09-03T01:22:21.097Z,51.60
2022-09-03T01:25:22.962Z,51.60
2022-09-03T01:28:01.927Z,51.80
2022-09-03T01:30:33.459Z,51.70
2022-09-03T01:33:21.594Z,51.70
2022-09-03T01:35:53.387Z,51.70
2022-09-03T01:38:51.824Z,51.80
2022-09-03T01:42:03.376Z,51.80
2022-09-03T01:45:00.895Z,51.80
2022-09-03T01:47:53.142Z,51.90
2022-09-03T01:50:57.732Z,51.80
2022-09-03T01:53:48.385Z,51.80
2022-09-03T01:56:59.215Z,51.80
2022-09-03T01:59:40.068Z,51.80
2022-09-03T02:02:24.706Z,51.90
2022-09-03T02:05:09.042Z,51.80
2022-09-03T02:07:41.854Z,51.70
2022-09-03T02:10:10.978Z,51.70
2022-09-03T02:12:39.474Z,51.70
2022-09-03T02:15:12.783Z,51.80
2022-09-03T02:17:42.822Z,51.70
2022-09-03T02:20:12.314Z,51.90
2022-09-03T02:22:40.059Z,52.40
2022-09-03T02:25:10.949Z,52.30
2022-09-03T02:27:39.039Z,52.30
2022-09-03T02:30:06.791Z,52.30
2022-09-03T02:32:33.475Z,52.30
2022-09-03T02:35:00.191Z,52.20
2022-09-03T02:37:27.147Z,52.40
2022-09-03T02:39:54.949Z,52.70
2022-09-03T02:42:21.833Z,52.70
2022-09-03T02:45:08.993Z,52.80
2022-09-03T02:47:38.091Z,52.90
2022-09-03T02:50:05.040Z,52.90
2022-09-03T02:52:31.743Z,53.00
2022-09-03T02:54:58.462Z,53.00
2022-09-03T02:57:27.612Z,53.10
2022-09-03T02:59:54.638Z,53.10
2022-09-03T03:02:21.350Z,53.10
2022-09-03T03:04:48.083Z,53.20
2022-09-03T03:07:14.723Z,53.20
2022-09-03T03:09:41.363Z,53.30
2022-09-03T03:12:09.831Z,53.20
2022-09-03T03:14:36.484Z,53.30
2022-09-03T03:17:03.282Z,53.30
2022-09-03T03:19:29.945Z,53.40
2022-09-03T03:21:56.827Z,53.40
2022-09-03T03:24:23.499Z,53.40
2022-09-03T03:26:50.706Z,53.40
2022-09-03T03:29:20.595Z,53.60
2022-09-03T03:31:47.227Z,53.60
2022-09-03T03:34:13.855Z,53.50
2022-09-03T03:36:40.535Z,53.70
2022-09-03T03:39:07.196Z,53.70
2022-09-03T03:41:38.162Z,53.80
2022-09-03T03:44:07.447Z,53.80
2022-09-03T03:46:40.111Z,53.90
2022-09-03T03:49:07.513Z,54.00
2022-09-03T03:51:35.569Z,53.90
2022-09-03T03:54:05.226Z,54.00
2022-09-03T03:56:33.215Z,54.10
2022-09-03T03:59:00.140Z,54.10
2022-09-03T04:01:28.599Z,54.10
2022-09-03T04:03:57.099Z,54.10
2022-09-03T04:06:24.104Z,54.00
2022-09-03T04:08:50.839Z,54.00
2022-09-03T04:11:20.048Z,54.10
2022-09-03T04:13:48.239Z,54.10
2022-09-03T04:16:18.502Z,53.90
2022-09-03T04:18:46.073Z,54.00
2022-09-03T04:21:15.718Z,54.00
2022-09-03T04:23:44.501Z,54.10
2022-09-03T04:26:15.011Z,54.20
2022-09-03T04:28:45.534Z,54.20
2022-09-03T04:31:14.624Z,54.30
2022-09-03T04:33:42.270Z,54.40
2022-09-03T04:36:10.628Z,54.30
2022-09-03T04:38:40.356Z,54.40
2022-09-03T04:41:10.009Z,54.30
2022-09-03T04:43:36.943Z,54.30
2022-09-03T04:46:10.840Z,54.30
2022-09-03T04:48:44.558Z,54.40
2022-09-03T04:51:13.709Z,54.30
2022-09-03T04:53:43.156Z,54.30
2022-09-03T04:56:21.604Z,54.30
2022-09-03T04:58:51.045Z,54.30
2022-09-03T05:01:20.282Z,54.30
2022-09-03T05:03:47.215Z,54.40
2022-09-03T05:06:14.538Z,54.50
2022-09-03T05:08:41.194Z,54.40
2022-09-03T05:11:08.356Z,54.50
2022-09-03T05:13:36.916Z,54.60
2022-09-03T05:16:06.368Z,54.60
2022-09-03T05:18:35.523Z,54.60
2022-09-03T05:21:04.903Z,54.60
2022-09-03T05:23:37.471Z,54.60
2022-09-03T05:26:09.000Z,54.60
2022-09-03T05:28:39.748Z,54.50
2022-09-03T05:31:12.390Z,54.60
2022-09-03T05:33:42.344Z,54.60
2022-09-03T05:36:11.788Z,54.70
2022-09-03T05:38:39.158Z,54.70
2022-09-03T05:41:08.354Z,54.70
2022-09-03T05:43:35.476Z,54.80
2022-09-03T05:46:10.209Z,54.80
2022-09-03T05:48:38.562Z,54.80
2022-09-03T05:51:07.826Z,55.00
2022-09-03T05:53:36.508Z,55.10
2022-09-03T05:56:12.096Z,55.20
2022-09-03T05:58:44.979Z,55.20
2022-09-03T06:01:17.839Z,55.30
2022-09-03T06:03:45.879Z,55.30
2022-09-03T06:06:16.358Z,55.20
2022-09-03T06:08:44.766Z,55.20
2022-09-03T06:11:12.545Z,55.20
2022-09-03T06:13:39.214Z,55.20
2022-09-03T06:16:07.513Z,55.20
2022-09-03T06:18:34.257Z,55.10
2022-09-03T06:21:06.971Z,55.30
2022-09-03T06:23:34.870Z,55.30
2022-09-03T06:26:14.124Z,55.20
2022-09-03T06:28:43.596Z,55.30
2022-09-03T06:31:13.051Z,55.30
2022-09-03T06:33:42.267Z,55.40
2022-09-03T06:36:11.653Z,55.50
2022-09-03T06:38:38.420Z,55.50
2022-09-03T06:41:07.696Z,55.40
2022-09-03T06:43:36.828Z,55.50
2022-09-03T06:46:12.509Z,55.40
2022-09-03T06:48:40.749Z,55.80
2022-09-03T06:51:15.303Z,55.60
2022-09-03T06:53:44.686Z,55.60
2022-09-03T06:56:13.394Z,55.50
2022-09-03T06:58:45.316Z,55.30
2022-09-03T07:01:15.178Z,56.70
2022-09-03T07:03:43.612Z,55.50
2022-09-03T07:06:16.263Z,55.20
2022-09-03T07:08:43.950Z,55.20
2022-09-03T07:11:13.740Z,55.00
2022-09-03T07:13:42.734Z,55.30
2022-09-03T07:16:15.086Z,55.40
2022-09-03T07:18:43.789Z,55.20
2022-09-03T07:21:13.223Z,55.10
2022-09-03T07:23:41.706Z,54.80
2022-09-03T07:26:12.586Z,54.80
2022-09-03T07:28:41.635Z,54.70
2022-09-03T07:31:15.035Z,55.00
2022-09-03T07:33:42.734Z,54.70
2022-09-03T07:36:12.291Z,54.60
2022-09-03T07:38:38.912Z,54.60
2022-09-03T07:41:07.760Z,54.40
2022-09-03T07:43:37.901Z,54.10
2022-09-03T07:46:04.634Z,53.90
2022-09-03T07:48:34.233Z,53.80
2022-09-03T07:51:03.967Z,53.50
2022-09-03T07:53:30.800Z,53.40
2022-09-03T07:56:06.226Z,53.50
2022-09-03T07:58:34.886Z,53.40
2022-09-03T08:01:22.271Z,52.80
2022-09-03T08:03:50.826Z,52.40
2022-09-03T08:06:19.351Z,51.90
2022-09-03T08:08:46.214Z,51.40
2022-09-03T08:11:19.732Z,51.00
2022-09-03T08:13:49.152Z,50.80
2022-09-03T08:16:21.220Z,50.80
2022-09-03T08:18:51.171Z,50.50
2022-09-03T08:21:20.015Z,50.20
2022-09-03T08:23:49.103Z,50.00
2022-09-03T08:26:17.599Z,49.80
2022-09-03T08:28:45.096Z,49.60
2022-09-03T08:31:17.985Z,49.60
2022-09-03T08:33:47.935Z,49.60
2022-09-03T08:36:26.188Z,49.20
2022-09-03T08:38:56.913Z,48.50
2022-09-03T08:41:45.060Z,48.10
2022-09-03T08:44:48.539Z,47.80
2022-09-03T08:47:23.371Z,47.50
2022-09-03T08:50:19.171Z,47.00
2022-09-03T08:53:03.014Z,46.70
2022-09-03T08:55:36.263Z,45.80
2022-09-03T08:58:19.471Z,45.40
2022-09-03T09:01:03.648Z,45.00
2022-09-03T09:03:51.129Z,44.40
2022-09-03T09:06:30.173Z,43.80
2022-09-03T09:09:33.692Z,43.70
2022-09-03T09:12:28.151Z,43.20
2022-09-03T09:15:26.294Z,43.00
2022-09-03T09:18:32.565Z,42.60
2022-09-03T09:21:17.761Z,43.50
2022-09-03T09:23:48.844Z,42.20
2022-09-03T09:26:18.091Z,41.70
2022-09-03T09:28:57.083Z,41.50
2022-09-03T09:31:24.069Z,41.50
2022-09-03T09:33:52.353Z,41.20
2022-09-03T09:36:21.716Z,41.00
2022-09-03T09:38:48.786Z,40.80
2022-09-03T09:41:21.148Z,40.50
2022-09-03T09:43:48.253Z,40.00
2022-09-03T09:46:25.432Z,40.00
2022-09-03T09:48:55.253Z,39.70
2022-09-03T09:51:31.211Z,39.60
2022-09-03T09:54:18.540Z,39.70
2022-09-03T09:56:46.698Z,39.60
2022-09-03T09:59:15.191Z,39.40
2022-09-03T10:01:47.131Z,39.30
2022-09-03T10:04:33.352Z,39.10
2022-09-03T10:07:23.769Z,39.20
2022-09-03T10:10:00.170Z,39.50
2022-09-03T10:12:34.160Z,38.20
2022-09-03T10:15:29.188Z,38.50
2022-09-03T10:17:58.230Z,38.30
2022-09-03T10:20:39.014Z,38.00
2022-09-03T10:23:15.183Z,37.70
2022-09-03T10:25:57.057Z,37.60
2022-09-03T10:28:29.006Z,37.30
2022-09-03T10:31:17.648Z,37.20
2022-09-03T10:34:00.616Z,37.00
2022-09-03T10:36:52.030Z,36.80
2022-09-03T10:39:23.203Z,36.70
2022-09-03T10:42:21.948Z,36.80
2022-09-03T10:45:09.524Z,36.80
2022-09-03T10:48:16.409Z,36.20
2022-09-03T10:50:56.766Z,36.30
2022-09-03T10:53:38.464Z,35.40
2022-09-03T10:56:17.244Z,35.70
2022-09-03T10:59:26.061Z,35.50
2022-09-03T11:02:08.640Z,35.30
2022-09-03T11:05:05.058Z,35.50
2022-09-03T11:07:51.782Z,35.50
2022-09-03T11:10:31.085Z,35.30
2022-09-03T11:13:10.996Z,35.00
2022-09-03T11:15:55.800Z,35.00
2022-09-03T11:18:28.679Z,34.60
2022-09-03T11:21:01.870Z,34.70
2022-09-03T11:23:31.452Z,34.50
2022-09-03T11:26:01.952Z,34.60
2022-09-03T11:28:42.116Z,34.20
2022-09-03T11:31:31.465Z,34.10
2022-09-03T11:34:08.316Z,34.40
2022-09-03T11:36:38.807Z,34.00
2022-09-03T11:39:26.509Z,33.80
2022-09-03T11:42:06.935Z,33.80
2022-09-03T11:44:37.914Z,33.90
2022-09-03T11:47:23.654Z,33.80
2022-09-03T11:49:53.513Z,33.60
2022-09-03T11:52:40.243Z,33.80
2022-09-03T11:55:08.233Z,33.50
2022-09-03T11:57:43.659Z,33.40
2022-09-03T12:00:22.507Z,33.30
2022-09-03T12:02:58.775Z,33.50
2022-09-03T12:05:35.050Z,33.20
2022-09-03T12:08:21.284Z,33.00
2022-09-03T12:10:59.941Z,32.80
2022-09-03T12:13:33.238Z,32.80
2022-09-03T12:16:12.094Z,33.10
2022-09-03T12:18:41.485Z,32.50
2022-09-03T12:21:10.515Z,32.50
2022-09-03T12:23:49.189Z,32.90
2022-09-03T12:26:18.605Z,32.20
2022-09-03T12:28:55.317Z,32.30
2022-09-03T12:31:29.694Z,32.40
2022-09-03T12:34:09.627Z,32.30
2022-09-03T12:36:48.210Z,32.20
2022-09-03T12:39:16.447Z,33.70
2022-09-03T12:42:04.015Z,32.60
2022-09-03T12:44:42.094Z,32.20
2022-09-03T12:50:08.519Z,32.40
2022-09-03T12:52:59.302Z,32.20
2022-09-03T12:55:33.456Z,31.60
2022-09-03T12:58:23.123Z,31.50
2022-09-03T13:01:11.767Z,31.50
2022-09-03T13:03:50.505Z,31.40
2022-09-03T13:06:20.026Z,31.70
2022-09-03T13:08:54.417Z,31.80
2022-09-03T13:11:24.445Z,31.20
2022-09-03T13:14:12.724Z,31.20
2022-09-03T13:16:45.461Z,31.00
2022-09-03T13:19:14.954Z,31.00
2022-09-03T13:21:53.914Z,31.60
2022-09-03T13:24:27.383Z,31.30
2022-09-03T13:27:10.279Z,31.20
2022-09-03T13:30:00.404Z,31.50
2022-09-03T13:32:42.088Z,31.70
2022-09-03T13:35:44.904Z,31.50
2022-09-03T13:38:27.850Z,31.60
2022-09-03T13:41:19.566Z,31.40
2022-09-03T13:44:03.074Z,31.50
2022-09-03T13:46:45.245Z,31.50
2022-09-03T13:49:53.213Z,31.60
2022-09-03T13:52:30.307Z,31.40
2022-09-03T13:55:03.006Z,31.80
2022-09-03T13:57:48.533Z,31.70
2022-09-03T14:00:44.294Z,32.20
2022-09-03T14:03:22.973Z,31.70
2022-09-03T14:06:01.959Z,32.00
2022-09-03T14:08:56.750Z,32.10
2022-09-03T14:11:35.041Z,32.10
2022-09-03T14:14:13.986Z,32.30
2022-09-03T14:16:55.171Z,32.30
2022-09-03T14:19:38.791Z,32.30
2022-09-03T14:22:32.031Z,32.40
2022-09-03T14:25:14.108Z,32.00
2022-09-03T14:27:41.018Z,31.50
2022-09-03T14:30:24.821Z,31.60
2022-09-03T14:33:06.007Z,31.80
2022-09-03T14:35:58.137Z,32.20
2022-09-03T14:38:40.627Z,32.30
2022-09-03T14:41:25.837Z,32.30
2022-09-03T14:44:20.207Z,32.60
2022-09-03T14:47:04.435Z,32.30
2022-09-03T14:49:40.204Z,32.70
2022-09-03T14:52:30.808Z,32.70
2022-09-03T14:55:30.249Z,32.80
2022-09-03T14:57:59.971Z,33.90
2022-09-03T15:00:32.687Z,33.10
2022-09-03T15:03:34.206Z,33.00
2022-09-03T15:06:19.001Z,34.00
2022-09-03T15:09:10.664Z,32.50
2022-09-03T15:11:55.523Z,32.50
2022-09-03T15:14:29.933Z,32.70
2022-09-03T15:17:19.881Z,32.90
2022-09-03T15:20:04.493Z,33.20
2022-09-03T15:23:07.196Z,33.20
2022-09-03T15:26:10.850Z,33.30
2022-09-03T15:29:19.440Z,33.00
2022-09-03T15:32:16.808Z,33.30
2022-09-03T15:35:04.880Z,33.20
2022-09-03T15:37:52.867Z,33.10
2022-09-03T15:40:25.700Z,33.40
2022-09-03T15:43:08.875Z,33.30
2022-09-03T15:45:45.432Z,33.20
2022-09-03T15:48:29.306Z,33.50
2022-09-03T15:51:10.484Z,33.70
2022-09-03T15:54:03.373Z,33.90
2022-09-03T15:56:32.969Z,33.90
2022-09-03T15:59:24.165Z,33.70
2022-09-03T16:01:59.392Z,33.90
2022-09-03T16:05:06.931Z,33.80
2022-09-03T16:08:05.544Z,34.10
2022-09-03T16:11:16.805Z,34.30
2022-09-03T16:14:07.571Z,34.20
2022-09-03T16:16:48.862Z,34.20
2022-09-03T16:19:24.209Z,34.10
2022-09-03T16:21:56.727Z,34.50
2022-09-03T16:24:32.530Z,34.60
2022-09-03T16:27:20.524Z,34.50
2022-09-03T16:30:12.251Z,34.60
2022-09-03T16:33:23.340Z,34.60
2022-09-03T16:35:58.719Z,34.50
2022-09-03T16:38:43.736Z,34.50
2022-09-03T16:41:21.936Z,34.70
2022-09-03T16:44:02.487Z,34.70
2022-09-03T16:46:41.584Z,34.60
2022-09-03T16:49:38.143Z,34.80
2022-09-03T16:52:16.286Z,34.90
2022-09-03T16:55:03.264Z,35.00
2022-09-03T16:57:44.077Z,35.40
2022-09-03T17:00:17.035Z,35.20
2022-09-03T17:03:12.133Z,35.50
2022-09-03T17:05:38.846Z,35.70
2022-09-03T17:08:17.990Z,35.90
2022-09-03T17:10:48.839Z,36.30
2022-09-03T17:13:19.756Z,36.20
2022-09-03T17:16:15.867Z,36.30
2022-09-03T17:19:03.496Z,36.50
2022-09-03T17:21:37.352Z,36.70
2022-09-03T17:24:33.547Z,36.60
2022-09-03T17:27:29.884Z,37.00
2022-09-03T17:30:04.852Z,37.00
2022-09-03T17:33:01.748Z,37.30
2022-09-03T17:35:38.209Z,37.60
2022-09-03T17:38:43.616Z,37.80
2022-09-03T17:41:34.645Z,38.20
2022-09-03T17:44:42.479Z,38.40
2022-09-03T17:47:12.112Z,38.30
2022-09-03T17:49:48.399Z,38.60
2022-09-03T17:52:35.546Z,38.70
2022-09-03T17:55:27.990Z,39.00
2022-09-03T17:58:04.307Z,39.20
2022-09-03T18:00:45.751Z,39.60
2022-09-03T18:03:30.100Z,40.00
2022-09-03T18:06:01.084Z,40.50
2022-09-03T18:08:54.034Z,40.80
2022-09-03T18:11:29.003Z,41.00
2022-09-03T18:14:28.523Z,41.50
2022-09-03T18:17:13.347Z,41.60
2022-09-03T18:20:29.534Z,41.90
2022-09-03T18:23:48.353Z,42.30
2022-09-03T18:26:47.928Z,42.60
2022-09-03T18:30:01.999Z,43.00
2022-09-03T18:32:48.902Z,44.40
2022-09-03T18:35:34.209Z,43.60
2022-09-03T18:38:23.285Z,43.80
2022-09-03T18:41:34.754Z,44.20
2022-09-03T18:44:32.166Z,44.30
2022-09-03T18:50:41.540Z,45.10
2022-09-03T18:53:55.683Z,45.50
2022-09-03T18:56:58.700Z,45.90
2022-09-03T19:00:08.461Z,46.20
2022-09-03T19:03:19.261Z,47.70
2022-09-03T19:06:21.412Z,46.80
2022-09-03T19:09:51.065Z,47.20
2022-09-03T19:12:58.766Z,47.50
2022-09-03T19:15:48.602Z,47.80
2022-09-03T19:18:59.845Z,48.20
2022-09-03T19:21:54.545Z,48.60
2022-09-03T19:24:47.745Z,48.80
2022-09-03T19:27:55.648Z,49.10
2022-09-03T19:31:10.850Z,49.40
2022-09-03T19:34:15.200Z,49.60
2022-09-03T19:37:24.040Z,50.10
2022-09-03T19:40:40.168Z,50.30
2022-09-03T19:43:54.345Z,50.50
2022-09-03T19:47:05.359Z,50.60
2022-09-03T19:50:04.602Z,50.80
2022-09-03T19:53:09.229Z,51.10
2022-09-03T19:56:01.877Z,51.30
2022-09-03T19:58:53.421Z,51.70
2022-09-03T20:01:38.974Z,51.90
2022-09-03T20:04:51.629Z,52.00
2022-09-03T20:07:38.581Z,52.20
2022-09-03T20:10:24.538Z,52.40
2022-09-03T20:13:13.502Z,52.80
2022-09-03T20:15:56.667Z,53.00
2022-09-03T20:18:42.375Z,53.00
2022-09-03T20:21:22.623Z,53.20
2022-09-03T20:23:59.924Z,53.20
2022-09-03T20:26:39.552Z,53.40
2022-09-03T20:29:56.710Z,53.70
2022-09-03T20:32:53.195Z,54.10
2022-09-03T20:35:38.695Z,54.20
2022-09-03T20:38:11.442Z,54.50
2022-09-03T20:40:46.994Z,54.00
2022-09-03T20:43:25.096Z,54.60
2022-09-03T20:46:00.858Z,54.50
2022-09-03T20:48:41.370Z,55.00
2022-09-03T20:51:22.585Z,55.20
2022-09-03T20:54:09.462Z,55.50
2022-09-03T20:56:40.231Z,55.50
2022-09-03T20:59:13.275Z,55.60
2022-09-03T21:01:52.237Z,55.60
2022-09-03T21:04:48.685Z,55.70
2022-09-03T21:07:40.165Z,55.90
2022-09-03T21:10:31.902Z,55.90
2022-09-03T21:13:05.132Z,55.90
2022-09-03T21:15:55.790Z,55.80
2022-09-03T21:19:03.104Z,56.30
2022-09-03T21:21:58.328Z,56.40
2022-09-03T21:24:44.035Z,56.80
2022-09-03T21:27:16.794Z,57.10
2022-09-03T21:29:52.290Z,57.20
2022-09-03T21:32:29.768Z,57.40
2022-09-03T21:35:30.054Z,57.50
2022-09-03T21:38:07.183Z,57.50
2022-09-03T21:40:39.269Z,57.40
2022-09-03T21:43:17.365Z,57.70
2022-09-03T21:45:53.314Z,57.50
2022-09-03T21:48:28.084Z,57.70
2022-09-03T21:50:57.997Z,58.00
2022-09-03T21:53:44.119Z,58.10
2022-09-03T21:56:47.972Z,58.10
2022-09-03T21:59:29.852Z,58.10
2022-09-03T22:02:25.683Z,58.40
2022-09-03T22:04:53.522Z,58.50
2022-09-03T22:07:44.177Z,58.70
2022-09-03T22:10:14.163Z,58.80
2022-09-03T22:12:57.640Z,58.70
2022-09-03T22:15:24.461Z,58.90
2022-09-03T22:17:56.864Z,58.90
2022-09-03T22:20:27.756Z,58.90
2022-09-03T22:23:12.085Z,58.90
2022-09-03T22:25:51.281Z,59.00
2022-09-03T22:28:38.220Z,59.20
2022-09-03T22:31:15.566Z,59.40
2022-09-03T22:33:42.236Z,59.40
2022-09-03T22:36:18.236Z,59.40
2022-09-03T22:39:19.219Z,59.40
2022-09-03T22:42:20.183Z,59.50
2022-09-03T22:45:12.691Z,59.50
2022-09-03T22:47:53.026Z,59.80
2022-09-03T22:50:33.484Z,59.80
2022-09-03T22:53:27.834Z,59.90
2022-09-03T22:56:12.878Z,59.80
2022-09-03T22:58:44.112Z,59.70
2022-09-03T23:01:16.800Z,59.80
2022-09-03T23:03:55.270Z,60.00
2022-09-03T23:06:36.119Z,60.00
2022-09-03T23:09:15.364Z,60.00
2022-09-03T23:11:57.380Z,60.20
2022-09-03T23:14:57.464Z,60.10
2022-09-03T23:20:24.075Z,60.10
2022-09-03T23:23:03.375Z,60.10
2022-09-03T23:25:37.545Z,60.20
2022-09-03T23:28:24.373Z,60.30
2022-09-03T23:30:51.641Z,60.40
2022-09-03T23:33:18.363Z,60.50
2022-09-03T23:35:53.029Z,60.50
2022-09-03T23:38:40.628Z,60.60
2022-09-03T23:41:13.531Z,60.50
2022-09-03T23:43:59.460Z,60.60
2022-09-03T23:46:52.063Z,60.60
2022-09-03T23:49:29.010Z,60.70
2022-09-03T23:52:37.452Z,60.70
2022-09-03T23:55:23.102Z,60.80
2022-09-03T23:58:20.172Z,61.00
